Aeroporto :
LOGIN :

Iscrizione | Disclaimer

   EN    FR    IT 

 










Sommario :    VFR   VFR Marginale   IFR   IFR Intensivo   IFR Molto Intensivo
Visibilità : 
Base nubi : 
>= 8 km
>= 3000ft
5 / 8 km
1000 / 3000 ft
1500m / 5 km
500 / 1000 ft
800 / 1500m
200 / 500 ft
< 800m
< 200 ft
Simboli :   Temporali  Nebbia  Neve Forte  Precipitazioni Forti  Vento > 20 kt
SIGMETs :   Varie  Temporali  Ghiacco  Turbolenza  Onda orograficha  Ceneri Vulcaniche







- Altitudine del aeroporto : 164 ft
- Codice IATA : VBY


ESSV - Visby

ULTIMO METAR :
  • 231920Z 24010KT CAVOK 19/16 Q1022

METARs OBSOLETI :
  • 231850Z 24010KT CAVOK 19/16 Q1022
  • 231820Z 23010KT CAVOK 19/16 Q1021
  • 231750Z 24010KT CAVOK 19/16 Q1021
  • 231720Z 24012KT CAVOK 19/16 Q1021
  • 231650Z 24012KT 9999 FEW043 SCT059 20/15 Q1021
  • 231620Z 23010KT 9999 SCT042 19/16 Q1021

TAF TAF ESSV
Valido dal 23 a 18 ore il 23 a 22 ore UTC


231730Z 2318/2322 23014KT 9999 SCT040
Nessun NOTAM noto per questo aeroporto.



MetMap, La meteo Aeronautica in un colpo d'occhio ! - Copyright ORBIFLY Dicembre 2007 - Disclaimer

ORBIFLY MET'MAP TEAM :

Programmazione e sviluppo : Alexandra Zaïnal
Concezione e sviluppo : Baudouin d'Aumeries
Co-Programmazione e sviluppo : Marc-Olivier Méhu
Supporto tecnico e logistico : Manuel Goepfert
Aiuto per la traduzione : Arnaldo La Scala

Contatto : metmap@orbifly.com




FONTI E CREDITI :

   NOAA